Time;durP1;ratioP1;P1;durP2;ratioP2;P2;SDS_P1;SDS_P2;PMS_P1;PMS_P2;Temp;Humidity;BMP_temperature;BMP_pressure;BME280_temperature;BME280_humidity;BME280_pressure;Samples;Min_cycle;Max_cycle;Signal;HPM_P1;HPM_P2
2021/08/25 00:02:10;;;;;;;11.70;10.50;;;;;;;17.68;79.92;100243.70;1673761;84;21082;-64
2021/08/25 00:04:38;;;;;;;11.83;10.68;;;;;;;17.63;80.31;100242.27;1663200;84;21538;-64
2021/08/25 00:07:08;;;;;;;12.05;10.82;;;;;;;17.50;81.23;100238.48;1663156;84;20994;-63
2021/08/25 00:09:41;;;;;;;12.58;10.90;;;;;;;17.44;81.13;100223.23;1668322;85;21042;-64
2021/08/25 00:12:10;;;;;;;12.47;10.85;;;;;;;17.41;81.29;100218.34;1675463;84;21023;-68
2021/08/25 00:14:41;;;;;;;14.15;11.93;;;;;;;17.40;81.23;100209.95;1691119;83;21545;-69
2021/08/25 00:17:10;;;;;;;12.58;11.30;;;;;;;17.39;81.34;100204.29;1693929;83;21021;-69
2021/08/25 00:19:36;;;;;;;12.70;11.35;;;;;;;17.38;81.30;100203.45;1688378;84;21070;-68
2021/08/25 00:22:04;;;;;;;12.85;11.55;;;;;;;17.38;81.41;100198.06;1692005;83;21160;-70
2021/08/25 00:24:31;;;;;;;14.55;11.73;;;;;;;17.39;81.40;100195.67;1711266;82;21056;-69
2021/08/25 00:26:59;;;;;;;18.07;11.25;;;;;;;17.41;81.36;100195.44;1722863;82;21031;-68
2021/08/25 00:29:27;;;;;;;15.25;12.33;;;;;;;17.44;81.57;100190.40;1722975;82;21544;-67
2021/08/25 00:31:53;;;;;;;12.28;11.08;;;;;;;17.46;81.47;100194.18;1724496;82;21246;-67
2021/08/25 00:34:19;;;;;;;11.45;10.25;;;;;;;17.47;81.33;100195.83;1721987;82;21000;-69
2021/08/25 00:36:45;;;;;;;12.28;11.22;;;;;;;17.44;81.30;100193.59;1722266;82;20998;-68
2021/08/25 00:39:11;;;;;;;;;;;;;;;17.50;81.46;100211.00;1724599;82;21489;-68
2021/08/25 00:41:38;;;;;;;12.00;10.20;;;;;;;17.53;81.53;100216.43;1699905;82;20111;-68
2021/08/25 00:44:04;;;;;;;11.05;9.95;;;;;;;17.47;81.31;100224.93;1721096;82;21082;-69
2021/08/25 00:46:36;;;;;;;11.95;10.85;;;;;;;17.57;81.95;100235.11;1718690;82;21113;-69
2021/08/25 00:49:05;;;;;;;11.18;10.18;;;;;;;17.64;82.28;100241.19;1716977;82;21059;-68
2021/08/25 00:51:32;;;;;;;11.33;10.20;;;;;;;17.66;82.30;100235.57;1722379;82;21044;-69
2021/08/25 00:54:00;;;;;;;13.88;11.38;;;;;;;17.63;82.83;100234.69;1721378;82;21493;-68
2021/08/25 00:56:27;;;;;;;12.13;11.03;;;;;;;17.63;83.18;100234.69;1722813;82;21000;-69
2021/08/25 00:58:54;;;;;;;13.35;10.63;;;;;;;17.65;83.56;100233.41;1722054;82;20971;-68
2021/08/25 01:02:00;;;;;;;12.33;11.15;;;;;;;17.70;83.73;100223.25;1708060;82;21533;-67
2021/08/25 01:04:36;;;;;;;12.18;10.82;;;;;;;17.73;83.81;100226.02;1721690;82;21244;-68
2021/08/25 01:07:03;;;;;;;12.05;10.95;;;;;;;17.76;83.91;100233.61;1724865;82;20986;-70
2021/08/25 01:09:30;;;;;;;12.65;11.20;;;;;;;17.83;83.76;100246.43;1712709;82;21123;-68
2021/08/25 01:12:00;;;;;;;11.63;10.63;;;;;;;17.84;83.88;100248.92;1727206;81;21069;-68
2021/08/25 01:14:28;;;;;;;12.73;11.45;;;;;;;17.85;84.46;100253.78;1726153;81;21060;-69
2021/08/25 01:16:56;;;;;;;16.12;12.43;;;;;;;17.82;84.00;100252.87;1731658;81;20990;-67
2021/08/25 01:19:26;;;;;;;14.13;12.33;;;;;;;17.78;84.24;100247.16;1733017;82;21009;-68
2021/08/25 01:21:52;;;;;;;13.08;10.90;;;;;;;17.78;83.86;100250.36;1723852;82;21537;-68
2021/08/25 01:24:20;;;;;;;15.68;11.70;;;;;;;17.81;83.70;100239.92;1732206;82;21167;-67
2021/08/25 01:26:51;;;;;;;13.38;12.05;;;;;;;17.85;83.58;100227.63;1733514;81;21038;-69
2021/08/25 01:29:28;;;;;;;13.85;12.00;;;;;;;17.89;83.55;100227.47;1695098;84;21002;-67
2021/08/25 01:31:56;;;;;;;13.90;12.47;;;;;;;17.92;83.31;100227.50;1689015;84;21134;-69
2021/08/25 01:34:22;;;;;;;13.43;12.20;;;;;;;17.98;83.04;100229.23;1685722;84;21517;-69
2021/08/25 01:36:53;;;;;;;11.68;10.63;;;;;;;18.01;82.81;100223.37;1690270;84;21040;-69
2021/08/25 01:39:21;;;;;;;16.82;12.03;;;;;;;18.01;82.31;100213.13;1679829;84;21015;-68
2021/08/25 01:41:49;;;;;;;12.95;11.75;;;;;;;17.99;82.34;100217.41;1690196;84;21037;-69
2021/08/25 01:44:16;;;;;;;14.10;12.73;;;;;;;17.98;82.57;100219.80;1685434;84;21021;-69
2021/08/25 01:46:43;;;;;;;14.28;11.95;;;;;;;18.00;82.83;100208.78;1684467;84;21027;-68
2021/08/25 01:49:12;;;;;;;14.93;13.43;;;;;;;18.00;82.60;100216.33;1657927;85;21067;-68
2021/08/25 01:51:40;;;;;;;16.87;12.53;;;;;;;18.01;82.60;100211.23;1656600;85;21126;-69
2021/08/25 01:54:08;;;;;;;13.50;12.07;;;;;;;18.03;82.79;100205.07;1658239;85;21045;-69
2021/08/25 01:56:34;;;;;;;13.83;12.28;;;;;;;18.03;82.59;100195.63;1685122;84;21055;-68
2021/08/25 01:59:01;;;;;;;;;;;;;;;18.03;82.22;100196.17;1685853;84;21025;-70
2021/08/25 02:01:29;;;;;;;13.25;11.90;;;;;;;18.04;81.91;100191.05;1686279;84;20143;-68
2021/08/25 02:03:58;;;;;;;12.13;10.93;;;;;;;17.99;81.89;100188.25;1681698;84;21060;-69
2021/08/25 02:06:25;;;;;;;13.53;11.57;;;;;;;17.99;82.13;100187.74;1697954;82;21029;-69
2021/08/25 02:08:52;;;;;;;12.50;11.30;;;;;;;17.99;81.75;100176.95;1691037;84;21100;-68
2021/08/25 02:11:19;;;;;;;13.75;11.95;;;;;;;17.99;81.71;100181.00;1657555;85;21019;-69
2021/08/25 02:13:47;;;;;;;14.68;13.18;;;;;;;17.95;81.52;100173.11;1656572;85;21546;-69
2021/08/25 02:16:14;;;;;;;13.05;11.35;;;;;;;17.94;81.86;100171.45;1675354;85;21106;-68
2021/08/25 02:18:40;;;;;;;12.80;11.50;;;;;;;17.93;82.25;100166.30;1679846;84;21630;-70
2021/08/25 02:21:05;;;;;;;14.07;12.75;;;;;;;17.92;82.24;100170.07;1657547;85;21079;-70
2021/08/25 02:23:31;;;;;;;;;;;;;;;17.90;82.36;100168.95;1678588;84;21050;-70
2021/08/25 02:25:58;;;;;;;13.72;12.43;;;;;;;17.88;82.69;100158.41;1663508;85;20104;-68
2021/08/25 02:28:24;;;;;;;14.20;12.78;;;;;;;17.84;82.80;100155.91;1732496;81;20994;-69
2021/08/25 02:30:50;;;;;;;14.73;12.55;;;;;;;17.82;82.82;100156.66;1733146;81;21017;-68
2021/08/25 02:33:18;;;;;;;15.55;13.53;;;;;;;17.78;82.75;100160.05;1736216;81;21132;-74
2021/08/25 02:35:45;;;;;;;14.45;13.05;;;;;;;17.73;82.75;100161.32;1734921;82;20994;-69
2021/08/25 02:38:14;;;;;;;13.10;11.78;;;;;;;17.68;82.86;100162.02;1735847;81;21132;-68
2021/08/25 02:40:43;;;;;;;15.30;12.95;;;;;;;17.64;82.90;100156.29;1735264;81;20978;-70
2021/08/25 02:45:52;;;;;;;14.03;12.50;;;;;;;17.57;83.07;100153.45;1752597;78;23425;-76
2021/08/25 02:48:19;;;;;;;13.78;11.70;;;;;;;17.50;83.07;100158.45;1712250;83;20992;-69
2021/08/25 02:50:45;;;;;;;14.35;12.88;;;;;;;17.47;83.22;100154.88;1708334;82;21098;-68
2021/08/25 02:53:11;;;;;;;14.90;13.32;;;;;;;17.44;83.39;100155.37;1709055;82;21052;-67
2021/08/25 02:55:38;;;;;;;16.82;14.33;;;;;;;17.40;83.36;100162.27;1669918;84;21531;-68
2021/08/25 02:58:04;;;;;;;15.90;14.45;;;;;;;17.33;83.62;100158.91;1641957;86;21037;-68
2021/08/25 03:00:32;;;;;;;15.72;14.30;;;;;;;17.30;83.97;100156.14;1652354;84;21610;-68
2021/08/25 03:02:59;;;;;;;17.02;15.32;;;;;;;17.30;84.16;100155.33;1651484;86;21151;-69
2021/08/25 03:05:26;;;;;;;15.50;14.15;;;;;;;17.32;84.22;100155.91;1652181;85;21542;-68
2021/08/25 03:07:54;;;;;;;15.55;14.00;;;;;;;17.30;84.26;100156.14;1641112;85;21197;-68
2021/08/25 03:10:21;;;;;;;16.57;15.18;;;;;;;17.30;84.57;100158.03;1648115;85;21077;-68
2021/08/25 03:12:47;;;;;;;16.62;14.93;;;;;;;17.29;84.71;100153.69;1696439;83;20998;-68
2021/08/25 03:15:16;;;;;;;16.48;14.95;;;;;;;17.30;84.90;100152.64;1705981;81;20981;-68
2021/08/25 03:17:43;;;;;;;18.37;14.23;;;;;;;17.32;84.91;100147.30;1727336;83;21121;-69
2021/08/25 03:20:12;;;;;;;14.90;13.43;;;;;;;17.36;84.90;100146.83;1726283;83;21046;-68
2021/08/25 03:22:40;;;;;;;15.15;13.83;;;;;;;17.39;84.96;100149.06;1696153;82;20990;-69
2021/08/25 03:25:09;;;;;;;15.45;13.80;;;;;;;17.41;84.96;100146.95;1671429;84;21073;-68
2021/08/25 03:27:36;;;;;;;15.58;13.98;;;;;;;17.42;84.81;100148.06;1664617;84;21045;-66
2021/08/25 03:30:05;;;;;;;16.12;14.23;;;;;;;17.43;84.55;100156.41;1682805;81;21021;-68
2021/08/25 03:32:32;;;;;;;15.08;13.62;;;;;;;17.39;84.34;100145.83;1674200;84;21613;-69
2021/08/25 03:34:58;;;;;;;15.23;13.62;;;;;;;17.34;84.65;100151.10;1676428;84;21082;-68
2021/08/25 03:37:24;;;;;;;15.98;13.88;;;;;;;17.30;84.68;100158.03;1678129;84;21276;-71
2021/08/25 03:39:50;;;;;;;15.50;13.98;;;;;;;17.29;84.95;100157.72;1665287;84;21081;-71
2021/08/25 03:42:16;;;;;;;15.25;13.90;;;;;;;17.29;85.10;100153.69;1659166;84;21057;-69
2021/08/25 03:44:42;;;;;;;16.17;14.83;;;;;;;17.29;85.16;100158.56;1675408;84;21104;-69
2021/08/25 03:47:09;;;;;;;14.38;13.08;;;;;;;17.35;85.44;100163.53;1678679;83;21375;-69
2021/08/25 03:49:37;;;;;;;14.68;13.35;;;;;;;17.16;85.69;100122.46;1686051;83;21005;-69
2021/08/25 03:52:05;;;;;;;13.65;12.53;;;;;;;17.48;85.66;100155.72;1691834;83;20970;-70
2021/08/25 03:54:31;;;;;;;14.93;13.58;;;;;;;17.49;84.91;100157.34;1682537;83;21017;-69
2021/08/25 03:56:59;;;;;;;15.00;13.70;;;;;;;17.47;84.78;100155.41;1698813;83;21045;-71
2021/08/25 03:59:25;;;;;;;16.45;14.73;;;;;;;17.46;85.06;100143.83;1691108;83;21546;-70
2021/08/25 04:01:51;;;;;;;14.38;12.88;;;;;;;17.52;85.28;100150.13;1686129;83;21015;-72
2021/08/25 04:04:18;;;;;;;15.30;13.32;;;;;;;17.57;85.00;100154.80;1702354;82;21133;-70
2021/08/25 04:06:45;;;;;;;14.87;13.28;;;;;;;17.58;84.62;100157.26;1702291;84;21023;-71
2021/08/25 04:09:11;;;;;;;14.95;13.53;;;;;;;17.57;84.81;100152.91;1703589;83;21653;-71
2021/08/25 04:11:37;;;;;;;14.13;12.95;;;;;;;17.58;84.55;100157.26;1705657;82;21061;-71
2021/08/25 04:14:04;;;;;;;13.60;12.33;;;;;;;17.57;84.55;100158.84;1706433;83;21515;-71
2021/08/25 04:16:31;;;;;;;15.88;14.18;;;;;;;17.60;84.77;100153.79;1701811;82;21073;-70
2021/08/25 04:18:58;;;;;;;14.35;12.90;;;;;;;17.64;84.98;100150.90;1704367;83;21041;-71
2021/08/25 04:21:25;;;;;;;15.10;13.50;;;;;;;17.68;84.90;100152.05;1709980;82;21073;-71
2021/08/25 04:23:52;;;;;;;16.95;14.20;;;;;;;17.72;84.70;100149.70;1703704;83;21007;-70
2021/08/25 04:26:19;;;;;;;15.20;13.75;;;;;;;17.76;84.68;100146.00;1703648;82;21032;-71
2021/08/25 04:28:45;;;;;;;13.88;12.68;;;;;;;17.80;84.81;100143.10;1693675;82;21839;-69
2021/08/25 04:31:11;;;;;;;12.65;11.48;;;;;;;17.83;84.43;100140.75;1707634;82;21075;-68
2021/08/25 04:33:37;;;;;;;12.40;11.10;;;;;;;17.86;83.92;100134.11;1697696;82;21076;-71
2021/08/25 04:36:05;;;;;;;13.35;12.07;;;;;;;17.86;83.47;100132.76;1667973;84;21141;-70
2021/08/25 04:38:31;;;;;;;13.08;11.88;;;;;;;17.86;83.28;100127.36;1663500;84;21523;-70
2021/08/25 04:40:58;;;;;;;12.37;11.30;;;;;;;17.82;82.47;100128.85;1678404;84;20962;-71
2021/08/25 04:43:26;;;;;;;12.63;11.50;;;;;;;17.79;82.59;100130.70;1678257;85;21118;-70
2021/08/25 04:45:52;;;;;;;14.15;11.88;;;;;;;17.78;82.57;100131.75;1665448;84;21085;-70
2021/08/25 04:48:22;;;;;;;12.28;11.12;;;;;;;17.80;82.49;100129.63;1672165;84;21066;-71
2021/08/25 04:50:48;;;;;;;12.40;11.20;;;;;;;17.80;82.21;100135.02;1674412;84;21096;-69
2021/08/25 04:53:14;;;;;;;;;;;;;;;17.82;82.56;100134.24;1673746;84;21066;-70
2021/08/25 04:55:40;;;;;;;13.85;12.37;;;;;;;17.87;82.71;100134.38;1667185;84;20099;-70
2021/08/25 04:58:08;;;;;;;15.88;13.15;;;;;;;17.87;83.08;100132.49;1665921;84;21042;-70
2021/08/25 05:00:37;;;;;;;15.78;13.83;;;;;;;17.95;83.41;100125.92;1671823;83;21153;-74
2021/08/25 05:03:03;;;;;;;17.32;13.65;;;;;;;18.05;83.49;100126.62;1671451;85;21053;-62
2021/08/25 05:05:30;;;;;;;14.83;13.43;;;;;;;18.13;83.41;100124.06;1648916;85;21087;-64
2021/08/25 05:07:56;;;;;;;17.20;14.07;;;;;;;18.22;83.37;100122.06;1656484;86;21626;-63
2021/08/25 05:10:23;;;;;;;25.68;16.95;;;;;;;18.30;83.24;100126.23;1661103;86;21562;-62
2021/08/25 05:12:50;;;;;;;14.23;12.93;;;;;;;18.33;81.69;100128.45;1663223;85;21049;-61
2021/08/25 05:15:16;;;;;;;16.35;13.13;;;;;;;18.31;81.14;100129.23;1668949;85;21078;-62
2021/08/25 05:17:42;;;;;;;13.78;12.20;;;;;;;18.24;80.04;100127.22;1659178;85;21037;-62
2021/08/25 05:20:10;;;;;;;14.60;13.20;;;;;;;18.18;80.73;100122.27;1660287;85;21110;-62
2021/08/25 05:22:36;;;;;;;14.53;13.22;;;;;;;18.20;81.32;100119.33;1659327;85;21588;-62
2021/08/25 05:25:03;;;;;;;14.33;13.00;;;;;;;18.24;81.29;100123.17;1668607;85;21550;-62
2021/08/25 05:27:29;;;;;;;13.38;12.15;;;;;;;18.23;80.86;100116.13;1671040;85;21046;-61
2021/08/25 05:29:55;;;;;;;13.88;12.78;;;;;;;18.25;81.02;100116.19;1668472;85;21614;-62
2021/08/25 05:32:21;;;;;;;;;;;;;;;18.29;81.14;100117.87;1671406;85;20994;-63
2021/08/25 05:34:48;;;;;;;;;;;;;;;18.25;80.04;100112.65;1687419;83;20436;-61
2021/08/25 05:37:14;;;;;;;13.90;12.35;;;;;;;18.11;80.29;100115.39;1699192;83;20113;-62
2021/08/25 05:39:41;;;;;;;17.42;15.45;;;;;;;17.98;80.90;100111.93;1689142;83;21506;-63
2021/08/25 05:42:07;;;;;;;14.13;12.40;;;;;;;18.00;81.43;100111.69;1687955;84;21042;-62
2021/08/25 05:44:33;;;;;;;15.05;13.75;;;;;;;18.07;81.80;100113.17;1678669;83;21038;-68
2021/08/25 05:46:59;;;;;;;14.40;12.88;;;;;;;18.13;81.37;100107.34;1675510;84;21039;-67
2021/08/25 05:49:26;;;;;;;15.15;13.30;;;;;;;18.20;81.23;100111.23;1675654;84;21026;-62
2021/08/25 05:51:52;;;;;;;15.13;13.83;;;;;;;18.25;81.29;100111.30;1668434;84;21089;-62
2021/08/25 05:54:20;;;;;;;14.73;13.43;;;;;;;18.32;81.66;100108.45;1676641;84;20987;-62
2021/08/25 05:56:45;;;;;;;14.87;13.55;;;;;;;18.40;81.63;100104.83;1660208;84;21064;-65
2021/08/25 05:59:11;;;;;;;;;;;;;;;18.51;81.71;100104.97;1674047;84;21118;-66
2021/08/25 06:01:41;;;;;;;15.20;13.72;;;;;;;18.59;81.43;100102.69;1663567;85;20223;-62
2021/08/25 06:04:09;;;;;;;15.45;13.95;;;;;;;18.63;81.41;100104.36;1676757;85;21003;-63
2021/08/25 06:06:35;;;;;;;17.10;15.55;;;;;;;18.70;81.37;100106.33;1677060;85;21050;-62
2021/08/25 06:09:04;;;;;;;17.42;15.63;;;;;;;18.72;80.30;100101.50;1674018;85;21166;-63
2021/08/25 06:11:31;;;;;;;18.32;16.82;;;;;;;18.67;79.87;100102.25;1676753;85;21018;-63
2021/08/25 06:13:57;;;;;;;19.10;17.60;;;;;;;18.71;80.13;100108.52;1676790;85;21061;-62
2021/08/25 06:16:25;;;;;;;19.45;17.67;;;;;;;18.73;80.38;100107.20;1675224;85;21108;-62
2021/08/25 06:18:53;;;;;;;19.45;17.85;;;;;;;18.77;80.91;100109.68;1664302;85;21030;-64
2021/08/25 06:21:19;;;;;;;24.65;22.32;;;;;;;18.83;80.88;100108.71;1667807;85;21045;-64
2021/08/25 06:23:46;;;;;;;25.30;22.60;;;;;;;18.82;78.50;100098.99;1669176;85;21164;-62
2021/08/25 06:26:15;;;;;;;24.18;22.00;;;;;;;18.78;78.67;100104.58;1661716;85;20998;-63
2021/08/25 06:28:41;;;;;;;29.05;22.85;;;;;;;18.76;79.12;100099.97;1675779;85;21070;-63
2021/08/25 06:31:07;;;;;;;24.67;22.30;;;;;;;18.72;79.17;100082.60;1669397;85;21130;-63
2021/08/25 06:33:34;;;;;;;24.95;22.85;;;;;;;18.83;78.21;100095.75;1661638;85;21021;-63
2021/08/25 06:36:01;;;;;;;23.45;21.25;;;;;;;18.90;78.58;100099.09;1671184;85;20991;-63
2021/08/25 06:38:30;;;;;;;22.98;20.90;;;;;;;18.96;77.98;100106.73;1674004;85;21085;-62
2021/08/25 06:40:57;;;;;;;23.47;21.17;;;;;;;19.03;78.10;100109.53;1672012;85;21098;-63
2021/08/25 06:43:23;;;;;;;;;;;;;;;19.16;78.20;100105.66;1672595;85;21531;-62
2021/08/25 06:45:49;;;;;;;21.42;19.15;;;;;;;19.40;78.01;100099.47;1665690;85;20137;-62
2021/08/25 06:48:16;;;;;;;19.07;17.35;;;;;;;19.62;76.69;100114.29;1667245;86;21102;-62
2021/08/25 06:50:45;;;;;;;15.30;12.50;;;;;;;19.83;75.96;100114.02;1668731;86;21062;-62
2021/08/25 06:53:11;;;;;;;13.25;11.95;;;;;;;19.99;72.25;100115.52;1667466;86;21049;-62
2021/08/25 06:55:39;;;;;;;12.93;11.70;;;;;;;20.03;71.29;100109.88;1667203;85;22232;-65
2021/08/25 06:58:06;;;;;;;12.93;11.78;;;;;;;20.04;71.13;100108.78;1660270;86;21050;-62
2021/08/25 07:00:32;;;;;;;12.10;11.05;;;;;;;20.15;71.86;100115.11;1654124;86;21050;-63
2021/08/25 07:02:59;;;;;;;11.00;9.65;;;;;;;20.29;72.47;100120.93;1656552;86;21093;-62
2021/08/25 07:05:26;;;;;;;13.78;11.18;;;;;;;20.35;70.24;100123.95;1658201;86;21520;-64
2021/08/25 07:07:52;;;;;;;15.93;11.45;;;;;;;20.38;70.05;100118.84;1656815;86;21212;-62
2021/08/25 07:10:19;;;;;;;11.30;10.40;;;;;;;20.41;70.06;100123.72;1651822;85;21078;-62
2021/08/25 07:12:47;;;;;;;12.45;11.38;;;;;;;20.38;68.91;100129.66;1675029;85;21672;-63
2021/08/25 07:15:17;;;;;;;12.18;10.98;;;;;;;20.36;69.02;100127.76;1685681;85;21138;-66
2021/08/25 07:17:46;;;;;;;13.60;11.78;;;;;;;20.38;69.78;100122.90;1673130;84;21027;-62
2021/08/25 07:20:14;;;;;;;12.35;11.35;;;;;;;20.41;70.08;100122.36;1672857;85;21669;-63
2021/08/25 07:22:41;;;;;;;14.18;12.35;;;;;;;20.50;69.98;100126.77;1682335;85;21499;-63
2021/08/25 07:25:09;;;;;;;;;;;;;;;20.53;69.56;100126.78;1672582;84;21110;-63
2021/08/25 07:27:39;;;;;;;13.62;12.40;;;;;;;20.54;69.57;100123.02;1669739;84;20230;-63
2021/08/25 07:30:08;;;;;;;13.50;12.28;;;;;;;20.52;70.57;100119.75;1671487;84;20979;-61
2021/08/25 07:32:35;;;;;;;17.73;12.55;;;;;;;20.56;70.80;100123.02;1668682;85;21038;-67
2021/08/25 07:35:03;;;;;;;13.80;12.15;;;;;;;20.66;70.46;100132.33;1671079;85;20986;-67
2021/08/25 07:37:29;;;;;;;13.48;12.15;;;;;;;20.74;69.94;100124.54;1662849;84;21539;-67
2021/08/25 07:39:55;;;;;;;14.53;13.05;;;;;;;20.83;68.65;100130.27;1671665;83;21058;-67
2021/08/25 07:42:22;;;;;;;14.87;13.53;;;;;;;20.87;68.95;100127.84;1664191;85;21070;-67
2021/08/25 07:44:48;;;;;;;;;;;;;;;20.78;68.93;100129.70;1668074;85;21003;-68
2021/08/25 07:47:14;;;;;;;14.43;13.03;;;;;;;20.76;69.96;100117.52;1669705;85;20175;-69
2021/08/25 07:49:39;;;;;;;;;;;;;;;20.73;70.36;100124.25;1670902;85;21146;-69
2021/08/25 07:52:06;;;;;;;15.10;13.65;;;;;;;20.76;69.78;100121.58;1667967;85;20908;-69
2021/08/25 07:54:32;;;;;;;13.68;12.53;;;;;;;20.70;69.91;100117.18;1666511;85;21018;-69
2021/08/25 07:56:58;;;;;;;;;;;;;;;20.79;70.62;100116.45;1640784;86;21048;-68
2021/08/25 07:59:24;;;;;;;14.93;13.58;;;;;;;20.97;70.41;100107.06;1667268;85;20158;-69
2021/08/25 08:01:49;;;;;;;;;;;;;;;21.12;69.67;100098.73;1672004;84;21097;-70
2021/08/25 08:04:18;;;;;;;14.23;12.73;;;;;;;21.26;68.88;100103.12;1670805;86;20159;-69
2021/08/25 08:06:47;;;;;;;14.93;13.55;;;;;;;21.29;69.05;100103.96;1671428;85;21066;-67
2021/08/25 08:09:16;;;;;;;16.20;14.25;;;;;;;21.35;69.07;100107.77;1667098;85;21082;-68
2021/08/25 08:11:42;;;;;;;15.65;14.15;;;;;;;21.41;69.16;100109.14;1666036;85;21073;-69
2021/08/25 08:14:09;;;;;;;16.37;14.93;;;;;;;21.44;68.62;100104.05;1667796;84;21565;-68
2021/08/25 08:16:36;;;;;;;15.05;13.75;;;;;;;21.51;68.35;100105.13;1668988;84;21671;-69
2021/08/25 08:21:46;;;;;;;14.53;13.25;;;;;;;21.56;67.70;100105.96;1666928;84;21086;-68
2021/08/25 08:24:12;;;;;;;15.63;14.13;;;;;;;21.62;67.86;100108.14;1670281;84;21114;-68
2021/08/25 08:26:40;;;;;;;15.53;14.15;;;;;;;21.65;67.60;100104.10;1669546;84;21065;-70
2021/08/25 08:29:06;;;;;;;14.98;13.78;;;;;;;21.68;67.59;100104.91;1668980;86;21832;-69
2021/08/25 08:31:34;;;;;;;15.85;14.30;;;;;;;21.73;67.53;100103.56;1668329;84;21077;-68
2021/08/25 08:34:00;;;;;;;16.07;14.63;;;;;;;21.73;67.36;100097.59;1626691;86;21131;-68
2021/08/25 08:36:26;;;;;;;15.90;14.68;;;;;;;21.73;67.46;100103.02;1667614;86;21081;-70
2021/08/25 08:38:52;;;;;;;;;;;;;;;21.70;67.42;100094.59;1663924;86;21603;-69
2021/08/25 08:41:18;;;;;;;16.00;14.35;;;;;;;21.66;67.62;100094.87;1671250;86;20170;-67
2021/08/25 08:43:49;;;;;;;16.25;14.87;;;;;;;21.57;67.97;100094.59;1665661;85;21122;-68
2021/08/25 08:46:19;;;;;;;16.45;14.93;;;;;;;21.54;68.13;100099.19;1671057;84;21074;-68
2021/08/25 08:48:47;;;;;;;14.55;13.25;;;;;;;21.58;68.01;100098.92;1671546;84;21245;-68
2021/08/25 08:51:22;;;;;;;16.15;14.68;;;;;;;21.65;67.76;100098.68;1672205;84;21010;-69
2021/08/25 08:53:52;;;;;;;15.80;14.35;;;;;;;21.70;67.59;100097.31;1679646;84;21498;-70
2021/08/25 08:56:20;;;;;;;15.28;13.95;;;;;;;21.75;67.83;100102.75;1670081;84;20990;-69
2021/08/25 08:58:48;;;;;;;14.98;13.58;;;;;;;21.80;67.35;100101.42;1661899;86;21052;-71
2021/08/25 09:01:14;;;;;;;15.80;13.80;;;;;;;21.81;67.35;100104.38;1663347;86;21075;-69
2021/08/25 09:03:41;;;;;;;16.95;15.28;;;;;;;21.81;66.99;100103.58;1663451;85;21424;-70
2021/08/25 09:06:09;;;;;;;16.48;15.08;;;;;;;21.78;66.86;100102.23;1668434;85;21101;-69
2021/08/25 09:08:38;;;;;;;15.00;13.45;;;;;;;21.75;66.98;100100.05;1671755;85;21105;-70
2021/08/25 09:11:09;;;;;;;15.48;14.00;;;;;;;21.72;67.10;100098.69;1666531;84;21062;-69
2021/08/25 09:13:49;;;;;;;13.78;12.50;;;;;;;21.68;67.30;100097.60;1668171;84;21643;-69
2021/08/25 09:16:31;;;;;;;13.95;12.65;;;;;;;21.69;67.86;100099.77;1676573;84;20951;-68
2021/08/25 09:19:08;;;;;;;14.45;12.47;;;;;;;21.74;67.61;100092.45;1670876;84;20988;-71
2021/08/25 09:21:50;;;;;;;14.20;12.78;;;;;;;21.84;66.68;100096.27;1667218;84;20996;-68
2021/08/25 09:24:24;;;;;;;12.58;11.38;;;;;;;21.92;66.92;100093.02;1668760;84;21059;-68
2021/08/25 09:27:13;;;;;;;12.43;11.33;;;;;;;22.01;66.33;100091.95;1663795;84;20986;-68
2021/08/25 09:29:44;;;;;;;13.93;12.60;;;;;;;22.04;65.94;100088.16;1673387;84;21496;-69
2021/08/25 09:32:22;;;;;;;12.13;10.98;;;;;;;22.10;66.15;100090.33;1658154;84;20996;-69
2021/08/25 09:35:00;;;;;;;12.35;11.18;;;;;;;22.10;66.32;100087.06;1669180;85;21037;-69
2021/08/25 09:37:29;;;;;;;13.28;12.07;;;;;;;22.05;65.71;100081.63;1667776;85;22046;-70
2021/08/25 09:39:59;;;;;;;12.65;11.35;;;;;;;21.92;65.62;100080.80;1671860;85;21101;-68
2021/08/25 09:42:41;;;;;;;12.07;11.10;;;;;;;21.80;65.74;100078.36;1667452;86;21116;-69
2021/08/25 09:45:09;;;;;;;11.45;10.45;;;;;;;21.71;66.31;100073.98;1666566;85;21042;-71
2021/08/25 09:47:55;;;;;;;11.80;10.78;;;;;;;21.65;66.75;100072.36;1671344;85;21170;-69
2021/08/25 09:50:27;;;;;;;11.68;10.48;;;;;;;21.60;66.44;100064.20;1644655;85;21157;-68
2021/08/25 09:52:56;;;;;;;10.95;10.05;;;;;;;21.62;67.10;100069.38;1666986;85;21069;-69
2021/08/25 09:55:34;;;;;;;11.90;10.82;;;;;;;21.69;67.08;100065.86;1668437;85;21037;-68
2021/08/25 09:58:01;;;;;;;11.90;10.00;;;;;;;21.82;67.20;100063.98;1635755;87;21086;-70
2021/08/25 10:00:28;;;;;;;12.00;10.55;;;;;;;21.98;66.14;100064.79;1632981;87;21041;-70
2021/08/25 10:02:55;;;;;;;10.95;10.15;;;;;;;22.02;65.13;100061.83;1641520;86;21032;-70
2021/08/25 10:05:28;;;;;;;13.88;10.80;;;;;;;22.09;65.25;100054.76;1630085;87;21041;-66
2021/08/25 10:07:56;;;;;;;11.68;10.68;;;;;;;22.17;65.32;100054.23;1656672;85;21193;-69
2021/08/25 10:10:23;;;;;;;10.60;9.73;;;;;;;22.32;65.09;100046.10;1648766;85;21042;-71
2021/08/25 10:12:51;;;;;;;10.82;9.75;;;;;;;22.46;62.43;100044.98;1647132;85;21015;-69
2021/08/25 10:15:45;;;;;;;10.45;9.65;;;;;;;22.53;63.38;100040.09;1660106;86;21167;-68
2021/08/25 10:18:27;;;;;;;9.88;8.93;;;;;;;22.54;63.15;100034.09;1640373;86;21066;-70
2021/08/25 10:20:57;;;;;;;10.85;9.75;;;;;;;22.61;63.34;100035.19;1656656;85;21065;-69
2021/08/25 10:23:58;;;;;;;9.93;9.15;;;;;;;22.67;62.92;100034.88;1679981;84;21148;-70
2021/08/25 10:26:26;;;;;;;9.95;8.88;;;;;;;22.69;62.63;100035.97;1662397;85;21128;-70
2021/08/25 10:29:11;;;;;;;10.43;9.48;;;;;;;22.63;62.17;100031.64;1658181;84;21014;-69
2021/08/25 10:31:56;;;;;;;9.83;8.80;;;;;;;22.51;62.85;100029.23;1675218;85;21491;-69
2021/08/25 10:34:34;;;;;;;9.28;8.35;;;;;;;22.44;64.07;100028.70;1660407;85;21023;-70
2021/08/25 10:37:20;;;;;;;10.45;8.78;;;;;;;22.47;64.18;100028.14;1674060;85;21055;-69
2021/08/25 10:42:14;;;;;;;8.98;8.38;;;;;;;22.62;63.48;100022.69;1797971;78;22954;-69
2021/08/25 10:44:50;;;;;;;8.33;7.67;;;;;;;22.68;63.54;100027.02;1754604;80;20996;-69
2021/08/25 10:47:18;;;;;;;9.43;8.33;;;;;;;22.80;63.63;100019.09;1731086;81;21033;-69
2021/08/25 10:49:48;;;;;;;8.55;7.85;;;;;;;22.85;63.59;100012.26;1715403;81;21124;-69
2021/08/25 10:52:21;;;;;;;9.40;8.70;;;;;;;22.96;63.46;100008.96;1730300;81;21542;-68
2021/08/25 10:54:50;;;;;;;9.50;8.58;;;;;;;23.05;62.61;100009.48;1714482;81;21540;-69
2021/08/25 10:57:23;;;;;;;8.73;8.10;;;;;;;23.06;62.01;100007.59;1727245;81;21140;-68
2021/08/25 10:59:51;;;;;;;8.98;8.18;;;;;;;23.00;60.82;100000.52;1725127;82;21085;-72
2021/08/25 11:02:18;;;;;;;9.85;7.15;;;;;;;22.88;61.19;100002.20;1713835;82;21111;-73
2021/08/25 11:04:46;;;;;;;8.68;7.92;;;;;;;22.85;61.60;99998.67;1726950;81;21089;-69
2021/08/25 11:07:15;;;;;;;9.70;8.58;;;;;;;22.85;62.10;100002.22;1733612;81;21607;-69
2021/08/25 11:09:46;;;;;;;9.80;8.45;;;;;;;22.85;62.23;99998.67;1729177;81;20945;-70
2021/08/25 11:12:20;;;;;;;10.05;9.23;;;;;;;22.88;62.41;99998.93;1725990;81;21072;-69
2021/08/25 11:14:53;;;;;;;9.25;8.45;;;;;;;22.90;61.66;99991.31;1716917;82;21058;-69
2021/08/25 11:17:28;;;;;;;8.03;7.42;;;;;;;22.91;61.60;99988.07;1693816;83;21136;-68
2021/08/25 11:19:59;;;;;;;11.93;7.55;;;;;;;22.85;61.34;99985.92;1705208;81;21071;-69
2021/08/25 11:22:32;;;;;;;8.80;8.20;;;;;;;22.84;61.21;99971.25;1711798;81;21663;-70
2021/08/25 11:25:14;;;;;;;7.50;6.90;;;;;;;22.85;61.60;99978.30;1736790;80;20994;-69
2021/08/25 11:27:49;;;;;;;9.18;8.38;;;;;;;22.86;61.12;99973.94;1725263;81;21293;-69
2021/08/25 11:30:21;;;;;;;10.28;9.25;;;;;;;22.88;61.06;99976.39;1740859;80;21016;-70